sensor_id;sensor_type;location;lat;lon;timestamp;P1;durP1;ratioP1;P2;durP2;ratioP2
75626;SDS011;67372;49.404;11.034;2023-09-30T00:00:29;4.22;;;2.10;;
75626;SDS011;67372;49.404;11.034;2023-09-30T00:02:55;4.78;;;2.10;;
75626;SDS011;67372;49.404;11.034;2023-09-30T00:05:22;5.78;;;1.73;;
75626;SDS011;67372;49.404;11.034;2023-09-30T00:07:48;5.65;;;2.10;;
75626;SDS011;67372;49.404;11.034;2023-09-30T00:10:15;4.13;;;1.90;;
75626;SDS011;67372;49.404;11.034;2023-09-30T00:12:41;5.93;;;2.40;;
75626;SDS011;67372;49.404;11.034;2023-09-30T00:15:08;5.90;;;1.92;;
75626;SDS011;67372;49.404;11.034;2023-09-30T00:17:34;6.90;;;2.42;;
75626;SDS011;67372;49.404;11.034;2023-09-30T00:20:01;6.15;;;1.83;;
75626;SDS011;67372;49.404;11.034;2023-09-30T00:22:27;5.00;;;2.03;;
75626;SDS011;67372;49.404;11.034;2023-09-30T00:24:54;5.35;;;1.63;;
75626;SDS011;67372;49.404;11.034;2023-09-30T00:27:20;5.88;;;2.00;;
75626;SDS011;67372;49.404;11.034;2023-09-30T00:29:46;5.25;;;1.90;;
75626;SDS011;67372;49.404;11.034;2023-09-30T00:32:13;5.05;;;1.92;;
75626;SDS011;67372;49.404;11.034;2023-09-30T00:34:40;5.13;;;2.55;;
75626;SDS011;67372;49.404;11.034;2023-09-30T00:37:06;7.78;;;3.25;;
75626;SDS011;67372;49.404;11.034;2023-09-30T00:39:33;6.13;;;2.60;;
75626;SDS011;67372;49.404;11.034;2023-09-30T00:41:59;5.88;;;2.47;;
75626;SDS011;67372;49.404;11.034;2023-09-30T00:44:26;6.47;;;2.30;;
75626;SDS011;67372;49.404;11.034;2023-09-30T00:46:53;5.60;;;2.33;;
75626;SDS011;67372;49.404;11.034;2023-09-30T00:49:21;6.18;;;2.35;;
75626;SDS011;67372;49.404;11.034;2023-09-30T00:51:48;4.43;;;1.83;;
75626;SDS011;67372;49.404;11.034;2023-09-30T00:54:15;5.30;;;2.15;;
75626;SDS011;67372;49.404;11.034;2023-09-30T00:56:45;4.85;;;2.13;;
75626;SDS011;67372;49.404;11.034;2023-09-30T00:59:13;5.15;;;2.28;;
75626;SDS011;67372;49.404;11.034;2023-09-30T01:01:42;8.57;;;2.67;;
75626;SDS011;67372;49.404;11.034;2023-09-30T01:04:14;6.50;;;2.72;;
75626;SDS011;67372;49.404;11.034;2023-09-30T01:06:41;6.03;;;2.60;;
75626;SDS011;67372;49.404;11.034;2023-09-30T01:09:08;5.32;;;2.17;;
75626;SDS011;67372;49.404;11.034;2023-09-30T01:11:34;7.40;;;2.50;;
75626;SDS011;67372;49.404;11.034;2023-09-30T01:14:01;6.85;;;2.45;;
75626;SDS011;67372;49.404;11.034;2023-09-30T01:16:27;5.63;;;2.15;;
75626;SDS011;67372;49.404;11.034;2023-09-30T01:18:53;7.32;;;2.15;;
75626;SDS011;67372;49.404;11.034;2023-09-30T01:21:20;7.50;;;2.40;;
75626;SDS011;67372;49.404;11.034;2023-09-30T01:23:46;5.65;;;2.00;;
75626;SDS011;67372;49.404;11.034;2023-09-30T01:26:13;7.10;;;2.53;;
75626;SDS011;67372;49.404;11.034;2023-09-30T01:28:40;5.32;;;2.65;;
75626;SDS011;67372;49.404;11.034;2023-09-30T01:31:06;5.07;;;2.35;;
75626;SDS011;67372;49.404;11.034;2023-09-30T01:33:33;6.28;;;2.63;;
75626;SDS011;67372;49.404;11.034;2023-09-30T01:35:59;4.60;;;2.08;;
75626;SDS011;67372;49.404;11.034;2023-09-30T01:38:26;5.60;;;2.53;;
75626;SDS011;67372;49.404;11.034;2023-09-30T01:40:52;4.40;;;2.08;;
75626;SDS011;67372;49.404;11.034;2023-09-30T01:43:19;5.85;;;2.55;;
75626;SDS011;67372;49.404;11.034;2023-09-30T01:45:45;4.88;;;2.50;;
75626;SDS011;67372;49.404;11.034;2023-09-30T01:48:12;5.45;;;2.15;;
75626;SDS011;67372;49.404;11.034;2023-09-30T01:50:38;6.45;;;2.55;;
75626;SDS011;67372;49.404;11.034;2023-09-30T01:53:05;6.30;;;2.45;;
75626;SDS011;67372;49.404;11.034;2023-09-30T01:57:59;7.30;;;2.22;;
75626;SDS011;67372;49.404;11.034;2023-09-30T02:00:26;5.28;;;2.05;;
75626;SDS011;67372;49.404;11.034;2023-09-30T02:02:52;7.65;;;2.22;;
75626;SDS011;67372;49.404;11.034;2023-09-30T02:05:19;4.53;;;2.10;;
75626;SDS011;67372;49.404;11.034;2023-09-30T02:07:45;7.10;;;2.58;;
75626;SDS011;67372;49.404;11.034;2023-09-30T02:10:11;6.35;;;2.30;;
75626;SDS011;67372;49.404;11.034;2023-09-30T02:12:38;7.38;;;3.33;;
75626;SDS011;67372;49.404;11.034;2023-09-30T02:15:05;4.78;;;2.30;;
75626;SDS011;67372;49.404;11.034;2023-09-30T02:17:31;6.43;;;2.22;;
75626;SDS011;67372;49.404;11.034;2023-09-30T02:19:58;3.88;;;2.20;;
75626;SDS011;67372;49.404;11.034;2023-09-30T02:22:24;5.85;;;2.58;;
75626;SDS011;67372;49.404;11.034;2023-09-30T02:24:51;5.57;;;2.60;;
75626;SDS011;67372;49.404;11.034;2023-09-30T02:27:17;6.32;;;2.45;;
75626;SDS011;67372;49.404;11.034;2023-09-30T02:29:43;5.13;;;2.22;;
75626;SDS011;67372;49.404;11.034;2023-09-30T02:32:10;7.15;;;2.20;;
75626;SDS011;67372;49.404;11.034;2023-09-30T02:34:36;5.00;;;2.53;;
75626;SDS011;67372;49.404;11.034;2023-09-30T02:37:02;5.90;;;2.47;;
75626;SDS011;67372;49.404;11.034;2023-09-30T02:39:29;5.20;;;2.50;;
75626;SDS011;67372;49.404;11.034;2023-09-30T02:41:55;4.40;;;2.13;;
75626;SDS011;67372;49.404;11.034;2023-09-30T02:44:22;5.65;;;2.33;;
75626;SDS011;67372;49.404;11.034;2023-09-30T02:46:48;8.40;;;2.45;;
75626;SDS011;67372;49.404;11.034;2023-09-30T02:49:14;5.68;;;2.30;;
75626;SDS011;67372;49.404;11.034;2023-09-30T02:51:41;6.25;;;2.60;;
75626;SDS011;67372;49.404;11.034;2023-09-30T02:54:07;5.50;;;2.63;;
75626;SDS011;67372;49.404;11.034;2023-09-30T02:56:33;6.95;;;2.75;;
75626;SDS011;67372;49.404;11.034;2023-09-30T02:59:00;4.15;;;2.35;;
75626;SDS011;67372;49.404;11.034;2023-09-30T03:01:26;3.65;;;2.00;;
75626;SDS011;67372;49.404;11.034;2023-09-30T03:03:53;4.63;;;1.88;;
75626;SDS011;67372;49.404;11.034;2023-09-30T03:06:19;2.97;;;1.33;;
75626;SDS011;67372;49.404;11.034;2023-09-30T03:08:46;3.40;;;1.30;;
75626;SDS011;67372;49.404;11.034;2023-09-30T03:11:12;1.52;;;1.10;;
75626;SDS011;67372;49.404;11.034;2023-09-30T03:13:38;1.60;;;1.00;;
75626;SDS011;67372;49.404;11.034;2023-09-30T03:16:05;3.25;;;1.20;;
75626;SDS011;67372;49.404;11.034;2023-09-30T03:18:31;1.85;;;1.20;;
75626;SDS011;67372;49.404;11.034;2023-09-30T03:20:58;1.83;;;1.20;;
75626;SDS011;67372;49.404;11.034;2023-09-30T03:23:27;2.00;;;1.10;;
75626;SDS011;67372;49.404;11.034;2023-09-30T03:25:55;1.27;;;1.00;;
75626;SDS011;67372;49.404;11.034;2023-09-30T03:28:24;1.60;;;1.20;;
75626;SDS011;67372;49.404;11.034;2023-09-30T03:30:51;2.38;;;1.23;;
75626;SDS011;67372;49.404;11.034;2023-09-30T03:33:18;2.42;;;1.13;;
75626;SDS011;67372;49.404;11.034;2023-09-30T03:35:45;3.10;;;1.50;;
75626;SDS011;67372;49.404;11.034;2023-09-30T03:38:11;3.28;;;1.25;;
75626;SDS011;67372;49.404;11.034;2023-09-30T03:40:39;3.70;;;1.63;;
75626;SDS011;67372;49.404;11.034;2023-09-30T03:43:06;3.05;;;1.70;;
75626;SDS011;67372;49.404;11.034;2023-09-30T03:45:32;3.95;;;1.80;;
75626;SDS011;67372;49.404;11.034;2023-09-30T03:47:59;2.42;;;1.55;;
75626;SDS011;67372;49.404;11.034;2023-09-30T03:50:27;3.38;;;1.45;;
75626;SDS011;67372;49.404;11.034;2023-09-30T03:53:00;4.28;;;1.85;;
75626;SDS011;67372;49.404;11.034;2023-09-30T03:55:27;3.85;;;1.75;;
75626;SDS011;67372;49.404;11.034;2023-09-30T03:57:53;3.05;;;1.42;;
75626;SDS011;67372;49.404;11.034;2023-09-30T04:00:20;4.15;;;1.65;;
75626;SDS011;67372;49.404;11.034;2023-09-30T04:02:48;1.90;;;1.38;;
75626;SDS011;67372;49.404;11.034;2023-09-30T04:05:15;3.08;;;1.55;;
75626;SDS011;67372;49.404;11.034;2023-09-30T04:07:41;4.18;;;1.60;;
75626;SDS011;67372;49.404;11.034;2023-09-30T04:10:08;4.07;;;1.52;;
75626;SDS011;67372;49.404;11.034;2023-09-30T04:12:35;4.28;;;1.75;;
75626;SDS011;67372;49.404;11.034;2023-09-30T04:15:02;5.68;;;1.52;;
75626;SDS011;67372;49.404;11.034;2023-09-30T04:17:28;4.00;;;1.50;;
75626;SDS011;67372;49.404;11.034;2023-09-30T04:19:55;4.78;;;1.95;;
75626;SDS011;67372;49.404;11.034;2023-09-30T04:22:21;4.20;;;1.60;;
75626;SDS011;67372;49.404;11.034;2023-09-30T04:24:47;3.30;;;1.40;;
75626;SDS011;67372;49.404;11.034;2023-09-30T04:27:16;4.47;;;1.98;;
75626;SDS011;67372;49.404;11.034;2023-09-30T04:29:43;3.63;;;1.70;;
75626;SDS011;67372;49.404;11.034;2023-09-30T04:32:09;3.35;;;1.63;;
75626;SDS011;67372;49.404;11.034;2023-09-30T04:34:35;4.18;;;1.73;;
75626;SDS011;67372;49.404;11.034;2023-09-30T04:37:02;4.30;;;1.88;;
75626;SDS011;67372;49.404;11.034;2023-09-30T04:39:28;3.40;;;1.65;;
75626;SDS011;67372;49.404;11.034;2023-09-30T04:41:55;3.92;;;1.65;;
75626;SDS011;67372;49.404;11.034;2023-09-30T04:44:21;3.20;;;1.58;;
75626;SDS011;67372;49.404;11.034;2023-09-30T04:46:47;3.33;;;1.60;;
75626;SDS011;67372;49.404;11.034;2023-09-30T04:49:14;3.53;;;1.90;;
75626;SDS011;67372;49.404;11.034;2023-09-30T04:51:41;2.90;;;1.67;;
75626;SDS011;67372;49.404;11.034;2023-09-30T04:54:07;3.85;;;1.63;;
75626;SDS011;67372;49.404;11.034;2023-09-30T04:56:34;4.72;;;1.85;;
75626;SDS011;67372;49.404;11.034;2023-09-30T04:59:01;4.10;;;1.60;;
75626;SDS011;67372;49.404;11.034;2023-09-30T05:01:27;6.57;;;1.90;;
75626;SDS011;67372;49.404;11.034;2023-09-30T05:03:54;2.45;;;1.50;;
75626;SDS011;67372;49.404;11.034;2023-09-30T05:06:21;3.92;;;1.63;;
75626;SDS011;67372;49.404;11.034;2023-09-30T05:08:47;3.80;;;1.48;;
75626;SDS011;67372;49.404;11.034;2023-09-30T05:11:15;5.38;;;2.17;;
75626;SDS011;67372;49.404;11.034;2023-09-30T05:13:41;4.32;;;1.92;;
75626;SDS011;67372;49.404;11.034;2023-09-30T05:16:08;3.72;;;1.80;;
75626;SDS011;67372;49.404;11.034;2023-09-30T05:18:35;3.85;;;1.85;;
75626;SDS011;67372;49.404;11.034;2023-09-30T05:21:01;3.63;;;1.50;;
75626;SDS011;67372;49.404;11.034;2023-09-30T05:23:28;2.88;;;1.90;;
75626;SDS011;67372;49.404;11.034;2023-09-30T05:25:54;4.57;;;1.75;;
75626;SDS011;67372;49.404;11.034;2023-09-30T05:28:20;4.32;;;1.80;;
75626;SDS011;67372;49.404;11.034;2023-09-30T05:30:47;3.53;;;1.95;;
75626;SDS011;67372;49.404;11.034;2023-09-30T05:33:13;4.32;;;1.60;;
75626;SDS011;67372;49.404;11.034;2023-09-30T05:35:40;4.30;;;2.00;;
75626;SDS011;67372;49.404;11.034;2023-09-30T05:38:07;4.38;;;1.50;;
75626;SDS011;67372;49.404;11.034;2023-09-30T05:40:34;3.95;;;1.85;;
75626;SDS011;67372;49.404;11.034;2023-09-30T05:43:00;4.80;;;1.90;;
75626;SDS011;67372;49.404;11.034;2023-09-30T05:45:27;3.20;;;1.75;;
75626;SDS011;67372;49.404;11.034;2023-09-30T05:47:54;3.70;;;1.98;;
75626;SDS011;67372;49.404;11.034;2023-09-30T05:50:21;3.28;;;1.60;;
75626;SDS011;67372;49.404;11.034;2023-09-30T05:52:47;4.55;;;2.03;;
75626;SDS011;67372;49.404;11.034;2023-09-30T05:55:14;5.20;;;1.83;;
75626;SDS011;67372;49.404;11.034;2023-09-30T05:57:40;4.05;;;1.80;;
75626;SDS011;67372;49.404;11.034;2023-09-30T06:00:07;5.20;;;1.98;;
75626;SDS011;67372;49.404;11.034;2023-09-30T06:02:34;4.63;;;1.80;;
75626;SDS011;67372;49.404;11.034;2023-09-30T06:05:04;3.40;;;1.90;;
75626;SDS011;67372;49.404;11.034;2023-09-30T06:07:31;5.57;;;2.17;;
75626;SDS011;67372;49.404;11.034;2023-09-30T06:09:57;4.10;;;2.10;;
75626;SDS011;67372;49.404;11.034;2023-09-30T06:12:23;3.75;;;1.75;;
75626;SDS011;67372;49.404;11.034;2023-09-30T06:14:50;4.93;;;2.17;;
75626;SDS011;67372;49.404;11.034;2023-09-30T06:17:16;4.78;;;2.00;;
75626;SDS011;67372;49.404;11.034;2023-09-30T06:19:43;3.65;;;1.75;;
75626;SDS011;67372;49.404;11.034;2023-09-30T06:22:09;3.13;;;1.80;;
75626;SDS011;67372;49.404;11.034;2023-09-30T06:24:35;4.28;;;2.00;;
75626;SDS011;67372;49.404;11.034;2023-09-30T06:27:02;3.60;;;1.80;;
75626;SDS011;67372;49.404;11.034;2023-09-30T06:29:28;3.70;;;1.70;;
75626;SDS011;67372;49.404;11.034;2023-09-30T06:31:55;3.45;;;1.83;;
75626;SDS011;67372;49.404;11.034;2023-09-30T06:34:21;4.63;;;2.00;;
75626;SDS011;67372;49.404;11.034;2023-09-30T06:36:47;4.13;;;1.90;;
75626;SDS011;67372;49.404;11.034;2023-09-30T06:39:14;3.35;;;1.83;;
75626;SDS011;67372;49.404;11.034;2023-09-30T06:41:41;4.68;;;2.28;;
75626;SDS011;67372;49.404;11.034;2023-09-30T06:44:07;5.75;;;2.40;;
75626;SDS011;67372;49.404;11.034;2023-09-30T06:46:33;4.43;;;2.13;;
75626;SDS011;67372;49.404;11.034;2023-09-30T06:49:00;2.97;;;1.77;;
75626;SDS011;67372;49.404;11.034;2023-09-30T06:51:26;4.55;;;1.90;;
75626;SDS011;67372;49.404;11.034;2023-09-30T06:53:53;3.38;;;1.63;;
75626;SDS011;67372;49.404;11.034;2023-09-30T06:56:19;2.65;;;1.60;;
75626;SDS011;67372;49.404;11.034;2023-09-30T06:58:46;2.08;;;1.48;;
75626;SDS011;67372;49.404;11.034;2023-09-30T07:01:14;5.28;;;1.65;;
75626;SDS011;67372;49.404;11.034;2023-09-30T07:03:41;3.55;;;1.58;;
75626;SDS011;67372;49.404;11.034;2023-09-30T07:06:08;4.78;;;1.98;;
75626;SDS011;67372;49.404;11.034;2023-09-30T07:08:34;2.08;;;1.50;;
75626;SDS011;67372;49.404;11.034;2023-09-30T07:11:01;2.58;;;1.55;;
75626;SDS011;67372;49.404;11.034;2023-09-30T07:13:27;3.15;;;1.90;;
75626;SDS011;67372;49.404;11.034;2023-09-30T07:15:53;3.42;;;1.63;;
75626;SDS011;67372;49.404;11.034;2023-09-30T07:18:20;4.68;;;2.38;;
75626;SDS011;67372;49.404;11.034;2023-09-30T07:20:46;4.20;;;1.60;;
75626;SDS011;67372;49.404;11.034;2023-09-30T07:23:13;3.65;;;1.52;;
75626;SDS011;67372;49.404;11.034;2023-09-30T07:25:45;2.40;;;1.40;;
75626;SDS011;67372;49.404;11.034;2023-09-30T07:28:12;3.25;;;1.33;;
75626;SDS011;67372;49.404;11.034;2023-09-30T07:30:38;2.88;;;1.60;;
75626;SDS011;67372;49.404;11.034;2023-09-30T07:33:05;2.88;;;1.42;;
75626;SDS011;67372;49.404;11.034;2023-09-30T07:35:32;12.15;;;4.10;;
75626;SDS011;67372;49.404;11.034;2023-09-30T07:37:59;3.92;;;1.67;;
75626;SDS011;67372;49.404;11.034;2023-09-30T07:40:25;4.90;;;2.60;;
75626;SDS011;67372;49.404;11.034;2023-09-30T07:42:52;5.07;;;2.35;;
75626;SDS011;67372;49.404;11.034;2023-09-30T07:45:18;3.95;;;1.60;;
75626;SDS011;67372;49.404;11.034;2023-09-30T07:47:45;4.78;;;1.90;;
75626;SDS011;67372;49.404;11.034;2023-09-30T07:50:11;2.58;;;1.60;;
75626;SDS011;67372;49.404;11.034;2023-09-30T07:52:38;2.40;;;1.60;;
75626;SDS011;67372;49.404;11.034;2023-09-30T07:55:05;4.32;;;1.95;;
75626;SDS011;67372;49.404;11.034;2023-09-30T07:57:32;3.40;;;1.88;;
75626;SDS011;67372;49.404;11.034;2023-09-30T07:59:58;4.68;;;2.00;;
75626;SDS011;67372;49.404;11.034;2023-09-30T08:02:25;3.75;;;1.67;;
75626;SDS011;67372;49.404;11.034;2023-09-30T08:04:51;4.97;;;1.77;;
75626;SDS011;67372;49.404;11.034;2023-09-30T08:07:18;3.42;;;1.90;;
75626;SDS011;67372;49.404;11.034;2023-09-30T08:09:44;2.95;;;1.63;;
75626;SDS011;67372;49.404;11.034;2023-09-30T08:12:11;2.88;;;2.08;;
75626;SDS011;67372;49.404;11.034;2023-09-30T08:14:37;3.58;;;1.85;;
75626;SDS011;67372;49.404;11.034;2023-09-30T08:17:03;5.38;;;2.00;;
75626;SDS011;67372;49.404;11.034;2023-09-30T08:19:30;5.47;;;2.13;;
75626;SDS011;67372;49.404;11.034;2023-09-30T08:21:56;3.58;;;1.88;;
75626;SDS011;67372;49.404;11.034;2023-09-30T08:24:23;4.15;;;1.83;;
75626;SDS011;67372;49.404;11.034;2023-09-30T08:26:50;5.43;;;2.38;;
75626;SDS011;67372;49.404;11.034;2023-09-30T08:29:16;3.92;;;1.80;;
75626;SDS011;67372;49.404;11.034;2023-09-30T08:31:42;3.65;;;1.70;;
75626;SDS011;67372;49.404;11.034;2023-09-30T08:34:09;3.97;;;1.80;;
75626;SDS011;67372;49.404;11.034;2023-09-30T08:36:35;3.28;;;2.20;;
75626;SDS011;67372;49.404;11.034;2023-09-30T08:39:02;4.93;;;2.40;;
75626;SDS011;67372;49.404;11.034;2023-09-30T08:41:32;4.20;;;2.50;;
75626;SDS011;67372;49.404;11.034;2023-09-30T08:44:00;5.35;;;2.38;;
75626;SDS011;67372;49.404;11.034;2023-09-30T08:46:28;3.67;;;1.80;;
75626;SDS011;67372;49.404;11.034;2023-09-30T08:49:00;5.85;;;2.25;;
75626;SDS011;67372;49.404;11.034;2023-09-30T08:51:29;5.78;;;2.00;;
75626;SDS011;67372;49.404;11.034;2023-09-30T08:53:56;5.57;;;2.33;;
75626;SDS011;67372;49.404;11.034;2023-09-30T08:56:24;4.90;;;2.20;;
75626;SDS011;67372;49.404;11.034;2023-09-30T08:58:57;2.35;;;1.80;;
75626;SDS011;67372;49.404;11.034;2023-09-30T09:01:29;6.38;;;2.20;;
75626;SDS011;67372;49.404;11.034;2023-09-30T09:03:56;4.15;;;2.10;;
75626;SDS011;67372;49.404;11.034;2023-09-30T09:06:24;3.80;;;2.20;;
75626;SDS011;67372;49.404;11.034;2023-09-30T09:08:51;4.13;;;2.00;;
75626;SDS011;67372;49.404;11.034;2023-09-30T09:11:18;4.70;;;2.25;;
75626;SDS011;67372;49.404;11.034;2023-09-30T09:13:46;4.25;;;2.35;;
75626;SDS011;67372;49.404;11.034;2023-09-30T09:16:13;4.07;;;2.10;;
75626;SDS011;67372;49.404;11.034;2023-09-30T09:18:40;4.50;;;2.42;;
75626;SDS011;67372;49.404;11.034;2023-09-30T09:21:14;6.03;;;2.65;;
75626;SDS011;67372;49.404;11.034;2023-09-30T09:23:42;4.95;;;2.85;;
75626;SDS011;67372;49.404;11.034;2023-09-30T09:26:22;7.95;;;2.70;;
75626;SDS011;67372;49.404;11.034;2023-09-30T09:28:57;5.43;;;3.03;;
75626;SDS011;67372;49.404;11.034;2023-09-30T09:31:31;5.20;;;2.42;;
75626;SDS011;67372;49.404;11.034;2023-09-30T09:33:59;5.38;;;2.33;;
75626;SDS011;67372;49.404;11.034;2023-09-30T09:36:39;4.22;;;2.20;;
75626;SDS011;67372;49.404;11.034;2023-09-30T09:39:08;3.65;;;1.80;;
75626;SDS011;67372;49.404;11.034;2023-09-30T09:41:48;3.35;;;1.75;;
75626;SDS011;67372;49.404;11.034;2023-09-30T09:44:19;3.85;;;1.90;;
75626;SDS011;67372;49.404;11.034;2023-09-30T09:46:47;5.63;;;1.95;;
75626;SDS011;67372;49.404;11.034;2023-09-30T09:49:15;2.90;;;1.40;;
75626;SDS011;67372;49.404;11.034;2023-09-30T09:51:43;4.80;;;1.67;;
75626;SDS011;67372;49.404;11.034;2023-09-30T09:54:11;9.75;;;2.15;;
75626;SDS011;67372;49.404;11.034;2023-09-30T09:56:38;4.28;;;1.73;;
75626;SDS011;67372;49.404;11.034;2023-09-30T09:59:05;3.67;;;1.70;;
75626;SDS011;67372;49.404;11.034;2023-09-30T10:01:34;3.47;;;1.52;;
75626;SDS011;67372;49.404;11.034;2023-09-30T10:04:01;3.83;;;1.70;;
75626;SDS011;67372;49.404;11.034;2023-09-30T10:06:28;3.88;;;1.70;;
75626;SDS011;67372;49.404;11.034;2023-09-30T10:08:55;4.70;;;1.70;;
75626;SDS011;67372;49.404;11.034;2023-09-30T10:11:24;3.88;;;1.80;;
75626;SDS011;67372;49.404;11.034;2023-09-30T10:13:54;3.30;;;1.80;;
75626;SDS011;67372;49.404;11.034;2023-09-30T10:21:39;3.58;;;1.85;;
75626;SDS011;67372;49.404;11.034;2023-09-30T10:35:11;4.70;;;2.10;;
75626;SDS011;67372;49.404;11.034;2023-09-30T10:37:37;4.72;;;2.03;;
75626;SDS011;67372;49.404;11.034;2023-09-30T10:40:03;4.35;;;2.00;;
75626;SDS011;67372;49.404;11.034;2023-09-30T10:50:51;5.45;;;2.55;;
75626;SDS011;67372;49.404;11.034;2023-09-30T10:53:19;4.70;;;2.25;;
75626;SDS011;67372;49.404;11.034;2023-09-30T10:55:46;6.18;;;2.58;;
75626;SDS011;67372;49.404;11.034;2023-09-30T10:58:13;6.10;;;2.50;;
75626;SDS011;67372;49.404;11.034;2023-09-30T11:00:39;4.57;;;2.50;;
75626;SDS011;67372;49.404;11.034;2023-09-30T11:03:19;4.25;;;2.63;;
75626;SDS011;67372;49.404;11.034;2023-09-30T11:05:50;4.28;;;2.10;;
75626;SDS011;67372;49.404;11.034;2023-09-30T11:08:36;5.72;;;2.30;;
75626;SDS011;67372;49.404;11.034;2023-09-30T11:11:03;6.05;;;2.70;;
75626;SDS011;67372;49.404;11.034;2023-09-30T11:13:33;5.25;;;2.50;;
75626;SDS011;67372;49.404;11.034;2023-09-30T11:16:00;3.35;;;2.45;;
75626;SDS011;67372;49.404;11.034;2023-09-30T11:18:28;4.57;;;2.40;;
75626;SDS011;67372;49.404;11.034;2023-09-30T11:21:05;4.80;;;2.50;;
75626;SDS011;67372;49.404;11.034;2023-09-30T11:23:36;5.10;;;2.45;;
75626;SDS011;67372;49.404;11.034;2023-09-30T11:26:03;5.15;;;2.25;;
75626;SDS011;67372;49.404;11.034;2023-09-30T11:28:36;5.28;;;2.60;;
75626;SDS011;67372;49.404;11.034;2023-09-30T11:31:04;5.97;;;2.63;;
75626;SDS011;67372;49.404;11.034;2023-09-30T11:33:46;4.95;;;2.20;;
75626;SDS011;67372;49.404;11.034;2023-09-30T11:36:17;7.28;;;2.70;;
75626;SDS011;67372;49.404;11.034;2023-09-30T11:38:45;5.78;;;2.50;;
75626;SDS011;67372;49.404;11.034;2023-09-30T11:41:13;4.90;;;2.28;;
75626;SDS011;67372;49.404;11.034;2023-09-30T11:43:45;4.75;;;2.72;;
75626;SDS011;67372;49.404;11.034;2023-09-30T11:46:24;6.28;;;2.53;;
75626;SDS011;67372;49.404;11.034;2023-09-30T11:48:58;5.85;;;2.42;;
75626;SDS011;67372;49.404;11.034;2023-09-30T11:51:29;6.15;;;2.50;;
75626;SDS011;67372;49.404;11.034;2023-09-30T11:53:55;3.88;;;2.40;;
75626;SDS011;67372;49.404;11.034;2023-09-30T11:56:22;5.97;;;2.70;;
75626;SDS011;67372;49.404;11.034;2023-09-30T11:58:48;5.28;;;2.50;;
75626;SDS011;67372;49.404;11.034;2023-09-30T12:01:14;4.78;;;2.20;;
75626;SDS011;67372;49.404;11.034;2023-09-30T12:03:41;6.03;;;2.45;;
75626;SDS011;67372;49.404;11.034;2023-09-30T12:06:14;6.80;;;3.13;;
75626;SDS011;67372;49.404;11.034;2023-09-30T12:11:07;5.93;;;2.30;;
75626;SDS011;67372;49.404;11.034;2023-09-30T12:16:40;4.68;;;2.67;;
75626;SDS011;67372;49.404;11.034;2023-09-30T12:19:06;8.48;;;2.85;;
75626;SDS011;67372;49.404;11.034;2023-09-30T12:21:33;4.05;;;2.30;;
75626;SDS011;67372;49.404;11.034;2023-09-30T12:24:05;5.90;;;2.75;;
75626;SDS011;67372;49.404;11.034;2023-09-30T12:26:32;4.55;;;2.20;;
75626;SDS011;67372;49.404;11.034;2023-09-30T12:28:58;6.80;;;2.47;;
75626;SDS011;67372;49.404;11.034;2023-09-30T12:31:30;4.38;;;2.20;;
75626;SDS011;67372;49.404;11.034;2023-09-30T12:34:18;4.75;;;2.75;;
75626;SDS011;67372;49.404;11.034;2023-09-30T12:36:44;4.65;;;2.40;;
75626;SDS011;67372;49.404;11.034;2023-09-30T12:39:11;5.30;;;2.58;;
75626;SDS011;67372;49.404;11.034;2023-09-30T12:44:10;6.88;;;2.42;;
75626;SDS011;67372;49.404;11.034;2023-09-30T12:46:37;4.55;;;2.20;;
75626;SDS011;67372;49.404;11.034;2023-09-30T12:49:04;6.43;;;2.88;;
75626;SDS011;67372;49.404;11.034;2023-09-30T12:51:30;5.00;;;2.60;;
75626;SDS011;67372;49.404;11.034;2023-09-30T12:53:58;4.28;;;2.60;;
75626;SDS011;67372;49.404;11.034;2023-09-30T12:56:25;6.20;;;2.40;;
75626;SDS011;67372;49.404;11.034;2023-09-30T12:58:51;3.17;;;2.22;;
75626;SDS011;67372;49.404;11.034;2023-09-30T13:01:18;7.75;;;2.65;;
75626;SDS011;67372;49.404;11.034;2023-09-30T13:03:48;5.80;;;2.67;;
75626;SDS011;67372;49.404;11.034;2023-09-30T13:08:41;7.10;;;2.90;;
75626;SDS011;67372;49.404;11.034;2023-09-30T13:11:08;4.50;;;2.28;;
75626;SDS011;67372;49.404;11.034;2023-09-30T13:13:35;6.30;;;2.60;;
75626;SDS011;67372;49.404;11.034;2023-09-30T13:16:02;5.82;;;2.60;;
75626;SDS011;67372;49.404;11.034;2023-09-30T13:18:29;4.38;;;2.28;;
75626;SDS011;67372;49.404;11.034;2023-09-30T13:20:56;5.15;;;2.50;;
75626;SDS011;67372;49.404;11.034;2023-09-30T13:23:22;6.75;;;2.83;;
75626;SDS011;67372;49.404;11.034;2023-09-30T13:25:49;6.35;;;2.50;;
75626;SDS011;67372;49.404;11.034;2023-09-30T13:28:15;5.55;;;2.40;;
75626;SDS011;67372;49.404;11.034;2023-09-30T13:30:41;5.15;;;2.38;;
75626;SDS011;67372;49.404;11.034;2023-09-30T13:33:08;4.80;;;2.50;;
75626;SDS011;67372;49.404;11.034;2023-09-30T13:35:34;5.57;;;2.50;;
75626;SDS011;67372;49.404;11.034;2023-09-30T13:38:01;4.55;;;2.50;;
75626;SDS011;67372;49.404;11.034;2023-09-30T13:40:27;5.22;;;2.70;;
75626;SDS011;67372;49.404;11.034;2023-09-30T13:42:53;5.28;;;2.50;;
75626;SDS011;67372;49.404;11.034;2023-09-30T13:45:20;6.38;;;2.55;;
75626;SDS011;67372;49.404;11.034;2023-09-30T13:47:46;5.70;;;2.60;;
75626;SDS011;67372;49.404;11.034;2023-09-30T13:50:13;5.97;;;2.70;;
75626;SDS011;67372;49.404;11.034;2023-09-30T13:52:39;4.43;;;2.65;;
75626;SDS011;67372;49.404;11.034;2023-09-30T13:55:06;5.00;;;2.88;;
75626;SDS011;67372;49.404;11.034;2023-09-30T13:57:32;5.50;;;2.70;;
75626;SDS011;67372;49.404;11.034;2023-09-30T13:59:59;6.88;;;2.60;;
75626;SDS011;67372;49.404;11.034;2023-09-30T14:02:25;5.30;;;2.97;;
75626;SDS011;67372;49.404;11.034;2023-09-30T14:04:52;6.78;;;2.78;;
75626;SDS011;67372;49.404;11.034;2023-09-30T14:07:21;6.60;;;2.70;;
75626;SDS011;67372;49.404;11.034;2023-09-30T14:09:48;5.45;;;2.60;;
75626;SDS011;67372;49.404;11.034;2023-09-30T14:12:14;5.63;;;3.20;;
75626;SDS011;67372;49.404;11.034;2023-09-30T14:14:40;7.32;;;2.92;;
75626;SDS011;67372;49.404;11.034;2023-09-30T14:17:07;5.63;;;2.42;;
75626;SDS011;67372;49.404;11.034;2023-09-30T14:19:34;6.50;;;3.00;;
75626;SDS011;67372;49.404;11.034;2023-09-30T14:24:27;6.85;;;2.60;;
75626;SDS011;67372;49.404;11.034;2023-09-30T14:26:53;6.07;;;2.90;;
75626;SDS011;67372;49.404;11.034;2023-09-30T14:29:20;6.65;;;3.05;;
75626;SDS011;67372;49.404;11.034;2023-09-30T14:31:46;5.60;;;2.60;;
75626;SDS011;67372;49.404;11.034;2023-09-30T14:34:12;6.13;;;2.65;;
75626;SDS011;67372;49.404;11.034;2023-09-30T14:36:39;7.03;;;3.33;;
75626;SDS011;67372;49.404;11.034;2023-09-30T14:39:05;7.00;;;2.75;;
75626;SDS011;67372;49.404;11.034;2023-09-30T14:41:40;7.00;;;2.80;;
75626;SDS011;67372;49.404;11.034;2023-09-30T14:44:06;4.65;;;2.42;;
75626;SDS011;67372;49.404;11.034;2023-09-30T14:46:33;5.68;;;2.70;;
75626;SDS011;67372;49.404;11.034;2023-09-30T14:49:01;6.72;;;2.97;;
75626;SDS011;67372;49.404;11.034;2023-09-30T14:51:27;5.50;;;2.53;;
75626;SDS011;67372;49.404;11.034;2023-09-30T14:53:54;5.22;;;2.85;;
75626;SDS011;67372;49.404;11.034;2023-09-30T14:56:20;6.07;;;2.88;;
75626;SDS011;67372;49.404;11.034;2023-09-30T15:01:13;5.25;;;2.63;;
75626;SDS011;67372;49.404;11.034;2023-09-30T15:03:40;7.05;;;2.80;;
75626;SDS011;67372;49.404;11.034;2023-09-30T15:06:07;5.90;;;3.28;;
75626;SDS011;67372;49.404;11.034;2023-09-30T15:08:33;7.70;;;3.10;;
75626;SDS011;67372;49.404;11.034;2023-09-30T15:11:00;6.53;;;2.95;;
75626;SDS011;67372;49.404;11.034;2023-09-30T15:13:27;5.90;;;2.60;;
75626;SDS011;67372;49.404;11.034;2023-09-30T15:15:54;5.30;;;2.95;;